createdAt,value
2022-10-20T00:02:12.392Z,101563.31
2022-10-20T00:07:34.283Z,101578.00
2022-10-20T00:12:56.142Z,101583.13
2022-10-20T00:18:18.116Z,101574.50
2022-10-20T00:23:40.031Z,101572.84
2022-10-20T00:29:03.754Z,101580.56
2022-10-20T00:34:25.635Z,101583.13
2022-10-20T00:39:47.505Z,101584.00
2022-10-20T00:45:14.091Z,101579.69
2022-10-20T00:50:39.801Z,101587.03
2022-10-20T00:56:02.003Z,101569.28
2022-10-20T01:01:24.470Z,101574.50
2022-10-20T01:06:46.389Z,101566.75
2022-10-20T01:12:19.992Z,101575.31
2022-10-20T01:18:12.150Z,101581.25
2022-10-20T01:24:09.364Z,101577.75
2022-10-20T01:29:40.081Z,101567.47
2022-10-20T01:35:10.325Z,101576.81
2022-10-20T01:40:43.607Z,101577.59
2022-10-20T01:46:07.973Z,101577.41
2022-10-20T01:51:30.075Z,101582.59
2022-10-20T01:57:29.055Z,101584.97
2022-10-20T02:03:21.200Z,101578.00
2022-10-20T02:08:45.692Z,101563.41
2022-10-20T02:14:11.687Z,101575.38
2022-10-20T02:19:40.694Z,101573.56
2022-10-20T02:25:03.246Z,101573.47
2022-10-20T02:30:25.379Z,101579.34
2022-10-20T02:35:55.990Z,101579.31
2022-10-20T02:41:17.837Z,101580.16
2022-10-20T02:46:39.700Z,101577.53
2022-10-20T02:52:01.866Z,101576.56
2022-10-20T02:57:23.726Z,101581.63
2022-10-20T03:02:45.805Z,101583.34
2022-10-20T03:08:07.935Z,101579.88
2022-10-20T03:19:00.027Z,101581.50
2022-10-20T03:24:25.473Z,101583.16
2022-10-20T03:29:47.309Z,101589.13
2022-10-20T03:35:09.638Z,101578.69
2022-10-20T03:40:31.545Z,101600.09
2022-10-20T03:46:05.058Z,101606.06
2022-10-20T03:51:26.940Z,101596.53
2022-10-20T03:56:48.784Z,101609.25
2022-10-20T04:02:42.162Z,101611.78
2022-10-20T04:08:04.240Z,101611.66
2022-10-20T04:13:26.124Z,101627.09
2022-10-20T04:18:48.533Z,101604.75
2022-10-20T04:24:10.377Z,101622.75
2022-10-20T04:29:32.310Z,101623.59
2022-10-20T04:34:54.155Z,101617.56
2022-10-20T04:40:16.106Z,101624.41
2022-10-20T04:45:37.944Z,101621.78
2022-10-20T04:51:11.053Z,101631.19
2022-10-20T04:56:32.937Z,101632.03
2022-10-20T05:01:54.802Z,101628.69
2022-10-20T05:07:16.701Z,101620.09
2022-10-20T05:12:38.855Z,101637.22
2022-10-20T05:18:00.889Z,101631.41
2022-10-20T05:23:22.743Z,101635.91
2022-10-20T05:28:47.809Z,101641.34
2022-10-20T05:34:11.033Z,101638.25
2022-10-20T05:39:32.909Z,101638.84
2022-10-20T05:44:54.741Z,101632.72
2022-10-20T05:50:16.705Z,101643.94
2022-10-20T05:55:38.556Z,101626.44
2022-10-20T06:01:08.489Z,101642.41
2022-10-20T06:06:31.170Z,101637.88
2022-10-20T06:17:49.138Z,101651.63
2022-10-20T06:23:11.069Z,101659.44
2022-10-20T06:28:34.629Z,101652.19
2022-10-20T06:33:57.657Z,101666.50
2022-10-20T06:39:22.144Z,101672.19
2022-10-20T06:44:44.053Z,101676.19
2022-10-20T06:50:06.660Z,101668.28
2022-10-20T06:55:28.687Z,101673.28
2022-10-20T07:01:08.314Z,101687.22
2022-10-20T07:06:35.350Z,101680.81
2022-10-20T07:11:57.224Z,101695.06
2022-10-20T07:17:19.191Z,101694.84
2022-10-20T07:22:41.122Z,101690.44
2022-10-20T07:28:03.022Z,101695.66
2022-10-20T07:33:25.100Z,101697.88
2022-10-20T07:38:48.165Z,101706.63
2022-10-20T07:44:10.081Z,101685.59
2022-10-20T07:49:44.086Z,101709.06
2022-10-20T07:55:17.679Z,101707.72
2022-10-20T08:00:46.009Z,101707.56
2022-10-20T08:06:07.920Z,101718.22
2022-10-20T08:11:29.734Z,101699.34
2022-10-20T08:16:53.740Z,101708.53
2022-10-20T08:22:16.040Z,101722.00
2022-10-20T08:27:37.875Z,101714.13
2022-10-20T08:32:59.875Z,101717.53
2022-10-20T08:38:21.681Z,101709.03
2022-10-20T08:43:43.778Z,101711.94
2022-10-20T08:49:12.318Z,101714.53
2022-10-20T08:54:34.588Z,101733.97
2022-10-20T09:00:09.083Z,101726.44
2022-10-20T09:05:34.658Z,101736.16
2022-10-20T09:10:56.730Z,101718.84
2022-10-20T09:16:41.759Z,101731.38
2022-10-20T09:22:13.738Z,101720.94
2022-10-20T09:27:38.245Z,101720.22
2022-10-20T09:33:01.037Z,101710.78
2022-10-20T09:38:27.792Z,101718.19
2022-10-20T09:43:57.129Z,101728.38
2022-10-20T09:49:33.379Z,101723.78
2022-10-20T09:55:00.473Z,101723.47
2022-10-20T10:00:43.323Z,101733.59
2022-10-20T10:06:20.468Z,101716.44
2022-10-20T10:11:42.351Z,101688.38
2022-10-20T10:17:04.358Z,101689.75
2022-10-20T10:22:26.730Z,101687.09
2022-10-20T10:28:00.775Z,101689.88
2022-10-20T10:33:28.324Z,101690.84
2022-10-20T10:38:50.154Z,101696.72
2022-10-20T10:44:22.915Z,101671.31
2022-10-20T10:50:13.176Z,101681.44
2022-10-20T10:55:49.313Z,101689.81
2022-10-20T11:02:00.235Z,101676.47
2022-10-20T11:07:49.703Z,101678.41
2022-10-20T11:13:31.185Z,101678.56
2022-10-20T11:19:33.242Z,101659.28
2022-10-20T11:25:04.079Z,101653.78
2022-10-20T11:30:26.499Z,101636.00
2022-10-20T11:35:54.410Z,101625.72
2022-10-20T11:41:20.471Z,101614.38
2022-10-20T11:46:47.610Z,101615.78
2022-10-20T11:52:45.613Z,101618.78
2022-10-20T11:58:19.632Z,101610.78
2022-10-20T12:04:02.298Z,101612.75
2022-10-20T12:09:45.384Z,101597.41
2022-10-20T12:15:24.717Z,101601.63
2022-10-20T12:20:52.518Z,101598.63
2022-10-20T12:27:01.682Z,101601.44
2022-10-20T12:32:29.539Z,101599.53
2022-10-20T12:37:57.095Z,101583.41
2022-10-20T12:43:28.795Z,101590.28
2022-10-20T12:48:54.259Z,101583.34
2022-10-20T12:54:38.167Z,101573.38
2022-10-20T13:00:00.047Z,101578.44
2022-10-20T13:05:44.759Z,101582.75
2022-10-20T13:11:37.423Z,101578.59
2022-10-20T13:17:24.063Z,101563.44
2022-10-20T13:22:49.765Z,101578.06
2022-10-20T13:28:16.169Z,101578.16
2022-10-20T13:34:03.244Z,101579.66
2022-10-20T13:39:48.085Z,101569.38
2022-10-20T13:45:21.896Z,101575.63
2022-10-20T13:50:56.756Z,101552.38
2022-10-20T13:56:34.873Z,101563.78
2022-10-20T14:02:21.705Z,101554.78
2022-10-20T14:07:44.504Z,101549.75
2022-10-20T14:13:14.547Z,101555.00
2022-10-20T14:18:36.856Z,101555.00
2022-10-20T14:24:03.010Z,101538.13
2022-10-20T14:29:28.069Z,101548.69
2022-10-20T14:35:04.365Z,101541.38
2022-10-20T14:40:32.884Z,101534.00
2022-10-20T14:45:57.933Z,101533.84
2022-10-20T14:51:41.224Z,101538.94
2022-10-20T14:57:25.626Z,101536.41
2022-10-20T15:02:48.327Z,101513.47
2022-10-20T15:08:30.435Z,101515.06
2022-10-20T15:13:55.172Z,101505.66
2022-10-20T15:19:28.724Z,101510.78
2022-10-20T15:24:50.592Z,101492.97
2022-10-20T15:30:21.639Z,101505.81
2022-10-20T15:35:43.486Z,101507.63
2022-10-20T15:41:05.705Z,101511.09
2022-10-20T15:46:27.580Z,101498.25
2022-10-20T15:51:49.856Z,101517.22
2022-10-20T15:57:11.755Z,101520.66
2022-10-20T16:02:33.607Z,101514.66
2022-10-20T16:07:55.750Z,101507.78
2022-10-20T16:13:17.653Z,101505.28
2022-10-20T16:18:39.777Z,101516.38
2022-10-20T16:24:01.647Z,101513.81
2022-10-20T16:29:23.464Z,101516.41
2022-10-20T16:34:45.371Z,101519.81
2022-10-20T16:40:07.777Z,101513.81
2022-10-20T16:45:29.649Z,101518.09
2022-10-20T16:50:51.496Z,101522.34
2022-10-20T16:56:16.649Z,101521.53
2022-10-20T17:01:41.799Z,101512.19
2022-10-20T17:07:03.806Z,101524.19
2022-10-20T17:12:25.762Z,101525.81
2022-10-20T17:17:47.597Z,101501.00
2022-10-20T17:23:09.414Z,101517.34
2022-10-20T17:28:32.842Z,101524.25
2022-10-20T17:33:55.315Z,101520.03
2022-10-20T17:39:17.149Z,101503.81
2022-10-20T17:44:39.054Z,101517.66
2022-10-20T17:50:00.952Z,101518.53
2022-10-20T17:55:22.804Z,101525.44
2022-10-20T18:00:55.901Z,101520.38
2022-10-20T18:06:21.953Z,101510.19
2022-10-20T18:11:47.993Z,101499.06
2022-10-20T18:17:09.824Z,101514.53
2022-10-20T18:22:31.861Z,101511.97
2022-10-20T18:27:53.803Z,101494.00
2022-10-20T18:33:15.617Z,101493.13
2022-10-20T18:38:39.505Z,101495.72
2022-10-20T18:44:02.021Z,101517.19
2022-10-20T18:49:24.148Z,101507.75
2022-10-20T18:54:46.008Z,101522.31
2022-10-20T19:00:09.074Z,101514.63
2022-10-20T19:05:30.945Z,101519.72
2022-10-20T19:10:53.136Z,101500.00
2022-10-20T19:16:17.879Z,101525.69
2022-10-20T19:21:39.933Z,101525.69
2022-10-20T19:27:25.086Z,101523.91
2022-10-20T19:32:44.209Z,101518.72
2022-10-20T19:38:06.366Z,101532.38
2022-10-20T19:43:28.244Z,101517.81
2022-10-20T19:48:50.762Z,101519.47
2022-10-20T19:54:12.973Z,101515.16
2022-10-20T19:59:34.826Z,101514.25
2022-10-20T20:04:56.730Z,101508.22
2022-10-20T20:10:18.631Z,101498.72
2022-10-20T20:15:40.445Z,101504.66
2022-10-20T20:21:05.225Z,101494.34
2022-10-20T20:26:29.794Z,101484.00
2022-10-20T20:31:51.739Z,101485.63
2022-10-20T20:37:13.599Z,101468.44
2022-10-20T20:42:35.539Z,101497.50
2022-10-20T20:47:58.175Z,101485.41
2022-10-20T20:53:20.294Z,101489.53
2022-10-20T20:58:43.113Z,101467.19
2022-10-20T21:04:06.291Z,101453.41
2022-10-20T21:09:28.249Z,101479.72
2022-10-20T21:14:50.127Z,101466.06
2022-10-20T21:20:12.255Z,101444.59
2022-10-20T21:25:34.094Z,101453.09
2022-10-20T21:30:58.727Z,101452.94
2022-10-20T21:36:24.174Z,101445.19
2022-10-20T21:41:46.161Z,101425.38
2022-10-20T21:47:08.000Z,101439.09
2022-10-20T21:52:29.809Z,101438.22
2022-10-20T21:57:51.603Z,101434.66
2022-10-20T22:03:13.501Z,101421.66
2022-10-20T22:08:37.340Z,101436.81
2022-10-20T22:13:59.592Z,101428.03
2022-10-20T22:19:23.188Z,101422.00
2022-10-20T22:24:45.026Z,101434.78
2022-10-20T22:30:07.649Z,101419.28
2022-10-20T22:35:29.537Z,101407.31
2022-10-20T22:40:51.374Z,101396.22
2022-10-20T22:46:13.417Z,101379.91
2022-10-20T22:51:35.247Z,101379.22
2022-10-20T22:56:57.084Z,101389.31
2022-10-20T23:02:18.915Z,101377.13
2022-10-20T23:07:41.068Z,101367.13
2022-10-20T23:13:03.140Z,101375.59
2022-10-20T23:18:24.974Z,101352.31
2022-10-20T23:23:46.876Z,101382.13
2022-10-20T23:29:09.008Z,101373.44
2022-10-20T23:34:31.204Z,101372.41
2022-10-20T23:39:53.095Z,101386.72
2022-10-20T23:45:15.004Z,101387.50
2022-10-20T23:50:36.809Z,101385.03
2022-10-20T23:55:58.693Z,101379.00
